My Meet Scores
Isabelle Purpura, Flipstar Gymnastics Academy - MyMeetScores.com
Top100 | Top Teams | Upcoming Meets | Completed Meets | Latest | Add Scores | Help| Support | Bookmark and Share

Isabelle Purpura, Flipstar Gymnastics Academy
Personal Bests
LevelVault BarsBeamFloorAA
39.3259.400 9.3259.35037.125
49.0759.175 9.4509.20036.350
69.4509.500 9.6259.60037.625
79.1759.400 9.4509.40037.325
Meet Scores
Date Meet Team Session Level Division Vault Bars Beam Floor AA
2018-03-23 Illinois Level 7 & 8 State Competition Flipstar Gymnastics Academy 08 7 Jr E 9.175 16 9.400 4 9.350 11 9.400 11T 37.325 6T
2018-02-23 Kinetic Classic Flipstar Gymnastics Academy 1 7 Older 9.100 30T 7.650 68 8.550 48T 9.100 35T 34.400 58
2018-02-16 Big Classic Flipstar Gymnastics Academy 2A 7 Senior A 9.150 5 9.100 5 9.450 1T 9.025 12 36.725 3
2018-02-09 IGI Chicago Style Gymnastics Meet Flipstar Gymnastics Academy 16 7 413 Rush L7 B 9.150 17 9.150 5 9.375 1 8.850 23 36.525 5
2018-01-26 King Arthur Invitational Flipstar Gymnastics Academy 8 7 SR 9.175 14 9.025 5 7.750 15 9.000 2 34.950 10
2018-01-19 Sand Dollar/ Whitlow Invitational Flipstar Gymnastics Academy C07 7 Sr A 8.750 18 8.075 15 8.875 11T 9.150 10T 34.850 13
2017-12-08 Horton Invite At IWU Shirk Center Flipstar Gymnastics Academy All 7 Sr 8.850 16T 9.150 6 9.350 3T 9.350 10T 36.700 6
2017-11-17 SCGA Classic Flipstar Gymnastics Academy 3 7 JrB 9.150 6 8.150 5 9.225 2 8.950 5 35.475 4
2017-03-23 2017 Illinois Level 6, 7 State Championship Flipstar Gymnastics Academy 9 6 Jr C 9.450 1T 9.400 2 9.150 16T 9.350 8T 37.350 4
2017-02-24 Kinetic Classic Flipstar Gymnastics Academy 9 6 All Ages 9.300 3T 9.250 15T 9.625 1 9.450 8 37.625 2
2017-02-10 IGI Chicago Style Gymnastics Meet Flipstar Gymnastics Academy 532W 6 SrA 9.200 5 9.500 1 8.850 14 9.600 3 37.150 1
2016-12-09 Horton Invitational Flipstar Gymnastics Academy 1 6 SrA 9.250 2 9.150 1 9.350 3 8.925 9 36.675 1
2016-04-01 2016 Illinois Level 6 & 7 State Championships Flipstar Gymnastics Academy 06 6 L6 Jr C 9.450 5T 9.050 7T 9.475 4T 9.100 26T 37.075 8
2016-02-20 Big Classic Flipstar Gymnastics Academy 9B 6 Junior A 9.125 7T 8.225 16T 9.450 2 9.225 12T 36.025 11
2016-01-29 Circle Of Stars Gymnastics Invitational Flipstar Gymnastics Academy 1c1 6 11 8.975 7 7.950 14 8.525 11T 9.475 3 34.925 10
2016-01-22 King Arthur Invitational Flipstar Gymnastics Academy S4 6 Jr.B 9.175 4 7.750 13 8.550 14 9.200 7 34.675 10
2015-12-11 St. Nick Invite Flipstar Gymnastics Academy 7A 6 Child 9.150 6 9.000 4 8.600 12 8.950 14 35.700 11
2015-03-19 2015 Illinois Level 4 State Championship Flipstar Gymnastics Academy All 4 YouthE 9.075 8 8.575 23 9.425 4 8.925 21 36.000 13
2015-02-27 Elk Grove Gymnastics Invite Flipstar Gymnastics Academy 3 4 10yrs 9.025 3T 9.175 5 9.100 8 9.050 6 36.350 5T
2015-01-23 King Arthur Invitational Flipstar Gymnastics Academy 5 4 JrB 8.575 12 8.500 16 9.450 2 9.200 5 35.725 7
2014-11-07 Illinois Judges Cup 2014 Flipstar Gymnastics Academy B4 4 9 Year Old 8.475 3T 8.825 4 9.050 2 9.000 1 35.350 2
2014-03-07 Illinois Level 3 State Meet Flipstar Gymnastics Academy 1 3 Jr A 9.325 18 9.200 14 9.325 4 9.275 10 37.125 6
2014-02-21 EGGS Invite Flipstar Gymnastics Academy 2 3 9yrs 9.300 8 9.050 7 8.800 12 9.350 3 36.500 6
2014-02-15 BIG Dream Classic 2014 Flipstar Gymnastics Academy 6A 3 Junior A 8.950 11 9.225 8 9.325 7 9.075 7 36.575 9T
2014-02-07 IGI Chicago Style Gymnastics Meet Flipstar Gymnastics Academy 221 3 9 Yr Olds 8.525 10 9.400 2 8.950 4T 9.275 5T 36.150 3

www.lazysuits.com